createdAt,value
2023-04-18T00:48:55.098Z,5.70
2023-04-18T00:51:40.500Z,5.47
2023-04-18T00:54:26.187Z,5.60
2023-04-18T00:57:13.749Z,6.35
2023-04-18T01:00:10.044Z,5.65
2023-04-18T01:46:51.866Z,5.47
2023-04-18T01:49:37.197Z,5.97
2023-04-18T01:52:22.614Z,5.22
2023-04-18T01:55:08.612Z,5.53
2023-04-18T01:57:54.062Z,5.07
2023-04-18T02:48:09.196Z,4.45
2023-04-18T02:51:01.067Z,5.00
2023-04-18T02:53:46.708Z,4.57
2023-04-18T02:56:32.131Z,4.30
2023-04-18T02:59:36.263Z,4.50
2023-04-18T03:46:30.061Z,4.20
2023-04-18T03:49:16.263Z,4.60
2023-04-18T03:52:01.688Z,4.25
2023-04-18T03:54:47.004Z,5.10
2023-04-18T03:57:35.060Z,4.30
2023-04-18T04:47:52.368Z,4.07
2023-04-18T04:50:40.595Z,4.10
2023-04-18T04:53:26.793Z,3.92
2023-04-18T04:56:12.773Z,4.00
2023-04-18T04:58:57.860Z,4.33
2023-04-18T05:01:49.307Z,3.63
2023-04-18T05:04:34.810Z,3.80
2023-04-18T05:07:20.132Z,3.65
2023-04-18T05:10:05.183Z,4.25
2023-04-18T05:12:50.458Z,3.63
2023-04-18T05:15:35.784Z,3.58
2023-04-18T05:18:20.872Z,3.88
2023-04-18T05:21:06.186Z,3.90
2023-04-18T05:23:51.326Z,3.90
2023-04-18T05:26:36.218Z,3.40
2023-04-18T05:29:21.568Z,3.42
2023-04-18T05:32:06.802Z,3.80
2023-04-18T05:34:52.099Z,3.90
2023-04-18T05:37:37.233Z,3.65
2023-04-18T05:40:22.053Z,3.70
2023-04-18T05:43:06.914Z,3.53
2023-04-18T05:45:56.517Z,3.95
2023-04-18T05:48:42.888Z,3.55
2023-04-18T05:51:28.653Z,3.25
2023-04-18T05:54:13.973Z,3.83
2023-04-18T05:56:59.589Z,3.50
2023-04-18T05:59:44.445Z,4.00
2023-04-18T06:02:29.362Z,3.78
2023-04-18T06:05:14.914Z,3.75
2023-04-18T06:07:59.904Z,4.00
2023-04-18T06:10:45.422Z,4.15
2023-04-18T06:13:31.124Z,3.78
2023-04-18T06:16:16.616Z,4.30
2023-04-18T06:19:03.178Z,5.60
2023-04-18T06:21:48.473Z,6.17
2023-04-18T06:24:33.508Z,6.10
2023-04-18T06:27:30.480Z,5.88
2023-04-18T06:30:16.027Z,5.82
2023-04-18T06:33:01.148Z,6.07
2023-04-18T06:35:46.329Z,5.70
2023-04-18T06:38:32.069Z,5.28
2023-04-18T06:41:17.478Z,5.00
2023-04-18T06:44:04.679Z,4.70
2023-04-18T06:46:49.873Z,4.22
2023-04-18T06:49:34.674Z,4.33
2023-04-18T06:52:20.193Z,4.50
2023-04-18T06:55:06.201Z,4.10
2023-04-18T06:57:51.620Z,3.63
2023-04-18T07:00:36.835Z,3.97
2023-04-18T07:03:22.008Z,3.70
2023-04-18T07:06:08.877Z,3.60
2023-04-18T07:08:55.938Z,3.65
2023-04-18T07:11:41.118Z,4.07
2023-04-18T07:14:26.259Z,4.05
2023-04-18T07:17:11.530Z,3.77
2023-04-18T07:19:57.013Z,3.75
2023-04-18T07:22:42.276Z,3.45
2023-04-18T07:25:27.859Z,3.47
2023-04-18T07:28:13.166Z,3.40
2023-04-18T07:30:58.489Z,3.70
2023-04-18T07:33:43.653Z,4.45
2023-04-18T07:36:28.979Z,4.22
2023-04-18T07:39:13.799Z,4.07
2023-04-18T07:41:58.850Z,3.42
2023-04-18T07:44:44.536Z,3.63
2023-04-18T07:47:31.451Z,3.30
2023-04-18T07:50:17.395Z,3.58
2023-04-18T07:53:03.332Z,3.50
2023-04-18T07:55:48.302Z,3.28
2023-04-18T07:58:36.434Z,3.67
2023-04-18T08:01:24.157Z,3.50
2023-04-18T08:04:09.263Z,3.40
2023-04-18T08:06:57.003Z,3.25
2023-04-18T08:09:42.197Z,3.17
2023-04-18T08:12:27.543Z,3.07
2023-04-18T08:15:12.446Z,3.40
2023-04-18T08:17:57.613Z,3.35
2023-04-18T08:20:42.743Z,3.50
2023-04-18T08:23:27.635Z,3.40
2023-04-18T08:26:12.625Z,3.30
2023-04-18T08:28:57.851Z,3.40
2023-04-18T08:31:42.796Z,3.65
2023-04-18T08:34:29.290Z,3.40
2023-04-18T08:37:14.391Z,3.20
2023-04-18T08:39:59.407Z,3.20
2023-04-18T08:42:47.372Z,2.97
2023-04-18T08:45:33.341Z,3.00
2023-04-18T08:48:18.639Z,3.17
2023-04-18T08:51:04.989Z,2.95
2023-04-18T08:53:50.618Z,3.27
2023-04-18T08:56:37.417Z,3.08
2023-04-18T08:59:23.792Z,3.20
2023-04-18T09:02:10.179Z,3.25
2023-04-18T09:04:55.829Z,3.03
2023-04-18T09:07:41.363Z,2.93
2023-04-18T09:10:30.925Z,2.92
2023-04-18T09:13:36.303Z,2.85
2023-04-18T09:16:22.993Z,2.65
2023-04-18T09:19:09.696Z,3.20
2023-04-18T09:21:59.082Z,2.90
2023-04-18T09:24:53.189Z,3.13
2023-04-18T09:27:38.114Z,3.40
2023-04-18T09:30:34.143Z,2.67
2023-04-18T09:33:32.379Z,2.92
2023-04-18T09:36:18.527Z,2.80
2023-04-18T09:39:04.136Z,2.83
2023-04-18T09:41:58.949Z,3.03
2023-04-18T09:44:58.349Z,3.05
2023-04-18T09:47:43.504Z,2.78
2023-04-18T09:50:28.679Z,2.93
2023-04-18T09:53:17.743Z,2.67
2023-04-18T09:56:05.252Z,2.92
2023-04-18T09:58:55.614Z,2.83
2023-04-18T10:01:41.073Z,2.92
2023-04-18T10:04:27.332Z,2.63
2023-04-18T10:07:12.953Z,2.72
2023-04-18T10:09:57.926Z,2.70
2023-04-18T10:12:43.276Z,3.40
2023-04-18T10:15:29.498Z,2.90
2023-04-18T10:18:15.654Z,2.80
2023-04-18T10:21:01.983Z,2.70
2023-04-18T10:23:48.963Z,2.67
2023-04-18T10:26:50.328Z,2.90
2023-04-18T10:29:54.219Z,2.90
2023-04-18T10:32:39.335Z,3.10
2023-04-18T10:35:24.599Z,2.95
2023-04-18T10:38:16.533Z,2.90
2023-04-18T10:41:17.029Z,2.80
2023-04-18T10:44:08.904Z,3.00
2023-04-18T10:47:14.469Z,2.90
2023-04-18T10:50:01.539Z,2.80
2023-04-18T10:52:46.705Z,2.80
2023-04-18T10:55:31.618Z,2.95
2023-04-18T10:58:16.701Z,2.90
2023-04-18T11:01:03.320Z,3.00
2023-04-18T11:03:48.862Z,3.00
2023-04-18T11:06:33.925Z,2.95
2023-04-18T11:09:18.757Z,2.90
2023-04-18T11:12:07.891Z,3.20
2023-04-18T11:14:53.093Z,2.70
2023-04-18T11:17:40.259Z,2.80
2023-04-18T11:20:25.699Z,2.75
2023-04-18T11:23:19.840Z,2.70
2023-04-18T11:26:07.459Z,2.70
2023-04-18T11:28:56.279Z,3.07
2023-04-18T11:31:41.720Z,2.80
2023-04-18T11:34:30.965Z,2.90
2023-04-18T11:37:16.332Z,3.08
2023-04-18T11:40:02.236Z,2.67
2023-04-18T11:42:47.826Z,2.93
2023-04-18T11:45:33.303Z,2.63
2023-04-18T11:48:19.036Z,3.25
2023-04-18T11:51:04.684Z,3.53
2023-04-18T11:53:50.063Z,3.35
2023-04-18T11:56:36.638Z,3.60
2023-04-18T11:59:22.492Z,3.42
2023-04-18T12:02:16.336Z,3.40
2023-04-18T12:05:02.484Z,3.03
2023-04-18T12:07:48.071Z,2.97
2023-04-18T12:10:33.426Z,3.17
2023-04-18T12:13:19.322Z,3.30
2023-04-18T12:16:04.992Z,3.08
2023-04-18T12:18:50.949Z,3.17
2023-04-18T12:21:36.502Z,2.85
2023-04-18T12:24:26.672Z,2.87
2023-04-18T12:27:12.123Z,3.15
2023-04-18T12:29:57.335Z,2.85
2023-04-18T12:32:44.835Z,3.30
2023-04-18T12:35:30.754Z,2.83
2023-04-18T12:38:25.087Z,2.90
2023-04-18T12:41:10.291Z,2.90
2023-04-18T12:43:55.533Z,2.85
2023-04-18T12:46:40.768Z,2.67
2023-04-18T12:49:26.133Z,2.50
2023-04-18T12:52:11.031Z,2.87
2023-04-18T12:54:56.836Z,2.72
2023-04-18T12:57:42.586Z,2.63
2023-04-18T13:00:29.518Z,3.00
2023-04-18T13:03:14.722Z,3.10
2023-04-18T13:06:00.021Z,2.87
2023-04-18T13:08:47.522Z,2.90
2023-04-18T13:11:32.829Z,2.78
2023-04-18T13:14:17.596Z,2.80
2023-04-18T13:17:03.132Z,2.95
2023-04-18T13:19:48.978Z,2.73
2023-04-18T13:22:33.921Z,2.85
2023-04-18T13:25:19.138Z,2.72
2023-04-18T13:28:03.948Z,2.60
2023-04-18T13:30:49.016Z,2.70
2023-04-18T13:33:34.219Z,3.10
2023-04-18T13:36:19.031Z,3.00
2023-04-18T13:39:05.068Z,3.00
2023-04-18T13:41:49.869Z,3.00
2023-04-18T13:44:35.744Z,2.70
2023-04-18T13:47:20.804Z,2.97
2023-04-18T13:50:06.512Z,2.65
2023-04-18T13:52:53.544Z,2.50
2023-04-18T13:55:38.903Z,2.50
2023-04-18T13:58:23.849Z,2.70
2023-04-18T14:01:08.944Z,2.60
2023-04-18T14:03:54.743Z,2.60
2023-04-18T14:06:40.514Z,2.60
2023-04-18T14:09:26.734Z,2.60
2023-04-18T14:12:11.974Z,2.60
2023-04-18T14:14:57.129Z,3.13
2023-04-18T14:17:44.133Z,2.50
2023-04-18T14:20:34.352Z,2.63
2023-04-18T14:23:19.444Z,2.78
2023-04-18T14:26:05.156Z,2.50
2023-04-18T14:28:50.719Z,2.87
2023-04-18T14:31:35.902Z,2.58
2023-04-18T14:34:21.160Z,2.72
2023-04-18T14:37:06.671Z,2.70
2023-04-18T14:39:51.780Z,2.63
2023-04-18T14:42:37.766Z,2.90
2023-04-18T14:45:22.905Z,2.88
2023-04-18T14:48:09.998Z,2.65
2023-04-18T14:51:03.057Z,2.60
2023-04-18T14:53:48.292Z,2.65
2023-04-18T14:56:33.540Z,2.73
2023-04-18T14:59:19.333Z,2.60
2023-04-18T15:02:05.126Z,2.90
2023-04-18T15:04:50.851Z,2.78
2023-04-18T15:07:37.701Z,2.40
2023-04-18T15:10:22.946Z,2.53
2023-04-18T15:13:11.495Z,2.90
2023-04-18T15:15:57.086Z,2.55
2023-04-18T15:18:43.517Z,2.60
2023-04-18T15:21:28.848Z,2.70
2023-04-18T15:24:14.491Z,2.80
2023-04-18T15:27:00.059Z,2.63
2023-04-18T15:29:45.519Z,2.70
2023-04-18T15:32:31.006Z,2.70
2023-04-18T15:35:16.521Z,2.60
2023-04-18T15:38:02.041Z,2.73
2023-04-18T15:40:47.174Z,2.88
2023-04-18T15:43:32.648Z,2.50
2023-04-18T15:46:18.008Z,2.75
2023-04-18T15:49:03.277Z,2.50
2023-04-18T15:51:48.099Z,2.70
2023-04-18T15:54:33.196Z,2.95
2023-04-18T15:57:18.322Z,2.53
2023-04-18T16:00:09.297Z,2.58
2023-04-18T16:02:54.792Z,2.47
2023-04-18T16:05:40.157Z,2.57
2023-04-18T16:08:25.455Z,2.53
2023-04-18T16:11:10.298Z,2.42
2023-04-18T16:13:56.038Z,2.80
2023-04-18T16:16:41.005Z,2.50
2023-04-18T16:19:26.483Z,2.80
2023-04-18T16:22:12.594Z,2.70
2023-04-18T16:24:57.674Z,2.60
2023-04-18T16:27:42.829Z,3.00
2023-04-18T16:30:28.101Z,2.80
2023-04-18T16:33:13.493Z,2.80
2023-04-18T16:36:00.360Z,2.75
2023-04-18T16:38:45.367Z,2.80
2023-04-18T16:41:30.711Z,2.60
2023-04-18T16:44:16.145Z,2.50
2023-04-18T16:47:01.573Z,2.90
2023-04-18T16:49:47.703Z,2.63
2023-04-18T16:52:32.919Z,3.00
2023-04-18T16:55:18.366Z,3.00
2023-04-18T16:58:03.584Z,3.17
2023-04-18T17:00:49.064Z,2.90
2023-04-18T17:03:34.604Z,2.72
2023-04-18T17:06:22.506Z,2.55
2023-04-18T17:09:08.869Z,2.97
2023-04-18T17:11:54.148Z,2.75
2023-04-18T17:14:39.051Z,2.43
2023-04-18T17:17:23.942Z,2.55
2023-04-18T17:20:09.718Z,2.78
2023-04-18T17:22:55.102Z,2.70
2023-04-18T17:25:40.503Z,3.00
2023-04-18T17:28:25.307Z,2.73
2023-04-18T17:31:10.309Z,2.85
2023-04-18T17:33:56.218Z,2.60
2023-04-18T17:36:41.450Z,2.63
2023-04-18T17:39:26.975Z,2.63
2023-04-18T17:42:12.225Z,2.90
2023-04-18T17:44:57.318Z,2.50
2023-04-18T17:47:42.594Z,2.70
2023-04-18T17:50:27.682Z,2.92
2023-04-18T17:53:12.812Z,2.72
2023-04-18T17:56:01.122Z,2.77
2023-04-18T17:58:47.140Z,3.10
2023-04-18T18:01:32.839Z,2.45
2023-04-18T18:04:19.444Z,2.80
2023-04-18T18:07:05.197Z,2.67
2023-04-18T18:09:50.102Z,2.50
2023-04-18T18:12:36.209Z,2.55
2023-04-18T18:15:21.165Z,2.90
2023-04-18T18:18:06.631Z,2.72
2023-04-18T18:20:51.583Z,2.50
2023-04-18T18:23:36.294Z,2.50
2023-04-18T18:26:21.717Z,2.70
2023-04-18T18:29:09.693Z,2.70
2023-04-18T18:31:54.562Z,2.50
2023-04-18T18:34:39.716Z,2.72
2023-04-18T18:37:25.977Z,2.53
2023-04-18T18:40:11.367Z,2.85
2023-04-18T18:42:57.251Z,2.80
2023-04-18T18:45:42.459Z,2.53
2023-04-18T18:48:27.885Z,2.60
2023-04-18T18:51:12.901Z,2.57
2023-04-18T18:53:58.274Z,2.47
2023-04-18T18:56:44.205Z,2.90
2023-04-18T18:59:29.514Z,2.80
2023-04-18T19:02:14.583Z,3.20
2023-04-18T19:05:00.163Z,2.93
2023-04-18T19:07:45.658Z,2.90
2023-04-18T19:10:31.096Z,2.90
2023-04-18T19:13:16.573Z,3.25
2023-04-18T19:16:02.073Z,2.88
2023-04-18T19:18:49.111Z,2.87
2023-04-18T19:21:34.295Z,2.88
2023-04-18T19:24:19.288Z,3.17
2023-04-18T19:27:05.853Z,3.20
2023-04-18T19:29:51.253Z,3.08
2023-04-18T19:32:36.382Z,3.37
2023-04-18T19:35:21.792Z,3.60
2023-04-18T19:38:06.672Z,3.13
2023-04-18T19:40:51.658Z,3.00
2023-04-18T19:43:38.385Z,3.60
2023-04-18T19:46:23.631Z,3.20
2023-04-18T19:49:09.083Z,3.03
2023-04-18T19:51:54.252Z,3.33
2023-04-18T19:54:39.035Z,3.40
2023-04-18T19:57:25.642Z,3.28
2023-04-18T20:00:12.102Z,3.10
2023-04-18T20:03:00.335Z,3.10
2023-04-18T20:05:45.831Z,3.08
2023-04-18T20:08:36.185Z,2.63
2023-04-18T20:11:22.089Z,3.08
2023-04-18T20:14:07.137Z,3.20
2023-04-18T20:16:52.271Z,3.53
2023-04-18T20:19:37.481Z,3.88
2023-04-18T20:22:25.659Z,3.80
2023-04-18T20:25:10.999Z,4.07
2023-04-18T20:27:56.385Z,3.90
2023-04-18T20:30:41.830Z,4.15
2023-04-18T20:33:27.609Z,3.70
2023-04-18T20:36:14.027Z,3.70
2023-04-18T20:39:02.370Z,3.53
2023-04-18T20:41:51.338Z,3.57
2023-04-18T20:44:36.578Z,3.70
2023-04-18T20:47:21.437Z,3.03
2023-04-18T20:50:07.078Z,3.40
2023-04-18T20:52:51.876Z,3.70
2023-04-18T20:55:36.904Z,3.50
2023-04-18T20:58:22.144Z,3.70
2023-04-18T21:01:07.588Z,3.00
2023-04-18T21:03:52.920Z,3.67
2023-04-18T21:06:38.202Z,2.97
2023-04-18T21:09:23.309Z,3.40
2023-04-18T21:12:08.619Z,3.10
2023-04-18T21:14:53.449Z,3.25
2023-04-18T21:17:38.443Z,3.30
2023-04-18T21:20:23.628Z,3.30
2023-04-18T21:23:08.564Z,3.20
2023-04-18T21:25:53.380Z,3.58
2023-04-18T21:28:58.175Z,3.35
2023-04-18T21:31:43.462Z,3.10
2023-04-18T21:34:28.895Z,3.38
2023-04-18T21:37:14.029Z,3.70
2023-04-18T21:40:00.263Z,3.20
2023-04-18T21:42:46.193Z,3.20
2023-04-18T21:45:33.656Z,3.95
2023-04-18T21:48:19.126Z,3.45
2023-04-18T21:51:03.902Z,3.43
2023-04-18T21:53:48.956Z,3.10
2023-04-18T21:56:33.683Z,3.22
2023-04-18T21:59:18.724Z,3.13
2023-04-18T22:02:03.589Z,3.10
2023-04-18T22:04:49.042Z,3.30
2023-04-18T22:07:36.793Z,3.13
2023-04-18T22:10:28.925Z,3.20
2023-04-18T22:13:13.675Z,2.90
2023-04-18T22:16:03.717Z,2.97
2023-04-18T22:18:49.327Z,3.20
2023-04-18T22:21:34.581Z,2.92
2023-04-18T22:24:19.666Z,3.00
2023-04-18T22:27:04.703Z,3.00
2023-04-18T22:29:49.531Z,2.85
2023-04-18T22:32:34.399Z,3.03
2023-04-18T22:35:19.870Z,3.28
2023-04-18T22:38:06.085Z,2.70
2023-04-18T22:40:50.977Z,2.95
2023-04-18T22:43:36.555Z,2.80
2023-04-18T22:46:21.689Z,2.70
2023-04-18T22:49:07.273Z,3.30
2023-04-18T22:51:54.317Z,2.97
2023-04-18T22:54:40.045Z,2.78
2023-04-18T22:57:24.969Z,2.88
2023-04-18T23:45:55.743Z,2.60
2023-04-18T23:48:41.492Z,2.75
2023-04-18T23:51:27.693Z,2.65
2023-04-18T23:54:12.972Z,3.03
2023-04-18T23:56:58.299Z,2.40
2023-04-18T23:59:43.343Z,2.67
